createdAt,value
2023-04-15T00:01:48.182Z,9.90
2023-04-15T00:04:15.038Z,9.90
2023-04-15T00:06:41.864Z,9.90
2023-04-15T00:09:08.660Z,9.90
2023-04-15T00:11:35.352Z,9.80
2023-04-15T00:14:02.062Z,9.80
2023-04-15T00:16:28.763Z,9.80
2023-04-15T00:18:55.532Z,9.80
2023-04-15T00:21:22.288Z,9.70
2023-04-15T00:23:48.982Z,9.70
2023-04-15T00:26:15.686Z,9.80
2023-04-15T00:28:42.403Z,9.80
2023-04-15T00:31:09.180Z,9.80
2023-04-15T00:33:35.938Z,9.80
2023-04-15T00:36:02.713Z,9.90
2023-04-15T00:38:29.667Z,9.90
2023-04-15T00:40:56.464Z,9.90
2023-04-15T00:43:23.203Z,9.90
2023-04-15T00:45:51.365Z,9.90
2023-04-15T00:48:18.104Z,9.80
2023-04-15T00:50:44.850Z,9.90
2023-04-15T00:53:11.697Z,9.90
2023-04-15T00:55:38.479Z,9.90
2023-04-15T00:58:05.205Z,9.90
2023-04-15T01:00:31.972Z,9.80
2023-04-15T01:02:59.056Z,9.80
2023-04-15T01:05:25.889Z,9.80
2023-04-15T01:07:52.652Z,9.80
2023-04-15T01:10:19.342Z,9.80
2023-04-15T01:12:46.087Z,9.80
2023-04-15T01:15:12.865Z,9.80
2023-04-15T01:17:40.079Z,9.80
2023-04-15T01:20:07.562Z,9.80
2023-04-15T01:22:34.279Z,9.80
2023-04-15T01:25:18.820Z,9.80
2023-04-15T01:27:45.603Z,9.80
2023-04-15T01:30:12.314Z,9.80
2023-04-15T01:32:39.144Z,9.80
2023-04-15T01:35:06.305Z,9.80
2023-04-15T01:37:34.807Z,9.80
2023-04-15T01:40:01.514Z,9.70
2023-04-15T01:42:28.232Z,9.70
2023-04-15T01:44:54.993Z,9.70
2023-04-15T01:47:21.835Z,9.70
2023-04-15T01:49:48.680Z,9.70
2023-04-15T01:52:15.402Z,9.70
2023-04-15T01:54:42.168Z,9.70
2023-04-15T01:57:08.898Z,9.70
2023-04-15T01:59:35.674Z,9.70
2023-04-15T02:02:02.480Z,9.60
2023-04-15T02:04:29.322Z,9.60
2023-04-15T02:06:56.182Z,9.70
2023-04-15T02:09:22.912Z,9.70
2023-04-15T02:11:50.898Z,9.60
2023-04-15T02:14:17.653Z,9.60
2023-04-15T02:16:44.364Z,9.60
2023-04-15T02:19:11.088Z,9.50
2023-04-15T02:21:37.877Z,9.50
2023-04-15T02:24:04.719Z,9.50
2023-04-15T02:26:31.491Z,9.40
2023-04-15T02:28:58.532Z,9.40
2023-04-15T02:31:25.924Z,9.40
2023-04-15T02:33:52.607Z,9.40
2023-04-15T02:36:19.358Z,9.40
2023-04-15T02:38:46.042Z,9.40
2023-04-15T02:41:12.846Z,9.40
2023-04-15T02:43:39.522Z,9.40
2023-04-15T02:46:06.411Z,9.30
2023-04-15T02:48:33.162Z,9.30
2023-04-15T02:51:19.871Z,9.30
2023-04-15T02:53:47.419Z,9.30
2023-04-15T02:56:14.378Z,9.20
2023-04-15T02:58:41.270Z,9.20
2023-04-15T03:01:08.192Z,9.20
2023-04-15T03:03:35.181Z,9.20
2023-04-15T03:06:01.960Z,9.20
2023-04-15T03:08:28.700Z,9.20
2023-04-15T03:10:55.398Z,9.20
2023-04-15T03:13:22.088Z,9.20
2023-04-15T03:15:48.883Z,9.10
2023-04-15T03:18:15.606Z,9.20
2023-04-15T03:20:42.401Z,9.10
2023-04-15T03:23:09.200Z,9.10
2023-04-15T03:25:35.896Z,9.10
2023-04-15T03:28:02.864Z,9.10
2023-04-15T03:30:29.715Z,9.10
2023-04-15T03:32:56.602Z,9.10
2023-04-15T03:35:23.364Z,9.10
2023-04-15T03:37:50.090Z,9.10
2023-04-15T03:40:16.821Z,9.00
2023-04-15T03:42:43.739Z,9.00
2023-04-15T03:45:10.954Z,9.00
2023-04-15T03:47:37.681Z,9.00
2023-04-15T03:50:04.878Z,9.00
2023-04-15T03:52:31.605Z,9.00
2023-04-15T03:54:58.387Z,9.00
2023-04-15T03:57:25.085Z,9.00
2023-04-15T03:59:52.077Z,9.00
2023-04-15T04:02:18.888Z,9.00
2023-04-15T04:04:45.786Z,9.00
2023-04-15T04:07:16.513Z,9.00
2023-04-15T04:09:43.192Z,9.00
2023-04-15T04:12:09.888Z,9.00
2023-04-15T04:14:36.683Z,9.00
2023-04-15T04:17:03.612Z,9.00
2023-04-15T04:19:30.322Z,9.00
2023-04-15T04:21:57.104Z,9.00
2023-04-15T04:24:23.786Z,9.00
2023-04-15T04:26:50.568Z,8.90
2023-04-15T04:29:17.272Z,8.90
2023-04-15T04:31:44.014Z,8.90
2023-04-15T04:34:10.749Z,8.90
2023-04-15T04:36:37.451Z,9.00
2023-04-15T04:39:04.125Z,9.00
2023-04-15T04:41:30.839Z,9.00
2023-04-15T04:43:57.500Z,9.00
2023-04-15T04:46:24.283Z,9.00
2023-04-15T04:48:51.180Z,9.00
2023-04-15T04:51:18.259Z,9.00
2023-04-15T04:53:45.029Z,9.10
2023-04-15T04:56:11.837Z,9.00
2023-04-15T04:58:38.558Z,9.10
2023-04-15T05:01:05.410Z,9.10
2023-04-15T05:03:32.277Z,9.10
2023-04-15T05:05:59.125Z,9.10
2023-04-15T05:08:25.926Z,9.00
2023-04-15T05:10:52.720Z,9.10
2023-04-15T05:13:19.403Z,9.00
2023-04-15T05:15:46.187Z,9.00
2023-04-15T05:18:12.916Z,9.00
2023-04-15T05:20:39.638Z,9.00
2023-04-15T05:23:06.409Z,9.10
2023-04-15T05:25:33.167Z,9.10
2023-04-15T05:27:59.859Z,9.10
2023-04-15T05:30:26.566Z,9.10
2023-04-15T05:32:53.307Z,9.10
2023-04-15T05:35:20.146Z,9.10
2023-04-15T05:37:46.900Z,9.10
2023-04-15T05:40:13.689Z,9.10
2023-04-15T05:42:40.353Z,9.10
2023-04-15T05:45:07.473Z,9.10
2023-04-15T05:47:34.361Z,9.10
2023-04-15T05:50:01.216Z,9.10
2023-04-15T05:52:27.878Z,9.10
2023-04-15T05:54:54.615Z,9.10
2023-04-15T05:57:21.358Z,9.10
2023-04-15T05:59:48.114Z,9.10
2023-04-15T06:02:14.956Z,9.10
2023-04-15T06:04:41.774Z,9.20
2023-04-15T06:07:08.747Z,9.20
2023-04-15T06:09:35.879Z,9.20
2023-04-15T06:12:02.613Z,9.20
2023-04-15T06:14:29.323Z,9.20
2023-04-15T06:16:56.034Z,9.20
2023-04-15T06:19:22.949Z,9.30
2023-04-15T06:21:49.717Z,9.30
2023-04-15T06:24:16.459Z,9.30
2023-04-15T06:26:43.162Z,9.30
2023-04-15T06:29:09.839Z,9.30
2023-04-15T06:31:36.597Z,9.30
2023-04-15T06:34:03.275Z,9.30
2023-04-15T06:36:30.093Z,9.40
2023-04-15T06:38:56.843Z,9.40
2023-04-15T06:41:23.617Z,9.40
2023-04-15T06:43:50.393Z,9.40
2023-04-15T06:46:17.419Z,9.40
2023-04-15T06:48:44.258Z,9.40
2023-04-15T06:51:10.962Z,9.50
2023-04-15T06:53:37.793Z,9.50
2023-04-15T06:56:04.748Z,9.50
2023-04-15T06:58:31.489Z,9.50
2023-04-15T07:00:58.341Z,9.50
2023-04-15T07:03:25.058Z,9.60
2023-04-15T07:05:51.772Z,9.60
2023-04-15T07:08:19.688Z,9.60
2023-04-15T07:10:47.005Z,9.60
2023-04-15T07:13:13.748Z,9.70
2023-04-15T07:15:40.551Z,9.70
2023-04-15T07:18:07.237Z,9.70
2023-04-15T07:20:37.096Z,9.70
2023-04-15T07:23:03.804Z,9.70
2023-04-15T07:25:30.492Z,9.70
2023-04-15T07:27:57.246Z,9.80
2023-04-15T07:30:24.002Z,9.80
2023-04-15T07:32:50.852Z,9.80
2023-04-15T07:35:17.639Z,9.80
2023-04-15T07:37:45.321Z,9.80
2023-04-15T07:40:12.216Z,9.80
2023-04-15T07:42:41.182Z,9.80
2023-04-15T07:45:08.628Z,9.80
2023-04-15T07:47:35.414Z,9.80
2023-04-15T07:50:02.271Z,9.80
2023-04-15T07:52:28.967Z,9.80
2023-04-15T07:54:55.702Z,9.80
2023-04-15T07:57:22.437Z,9.90
2023-04-15T07:59:49.223Z,9.90
2023-04-15T08:02:16.091Z,9.90
2023-04-15T08:04:43.203Z,10.00
2023-04-15T08:07:10.235Z,10.00
2023-04-15T08:09:36.971Z,10.00
2023-04-15T08:12:03.947Z,10.00
2023-04-15T08:14:30.683Z,10.00
2023-04-15T08:16:57.712Z,10.10
2023-04-15T08:19:25.394Z,10.20
2023-04-15T08:21:52.203Z,10.30
2023-04-15T08:24:18.964Z,10.30
2023-04-15T08:26:45.781Z,10.30
2023-04-15T08:29:12.718Z,10.40
2023-04-15T08:31:39.456Z,10.50
2023-04-15T08:34:06.418Z,10.50
2023-04-15T08:36:33.131Z,10.60
2023-04-15T08:39:01.539Z,10.70
2023-04-15T08:41:28.406Z,10.80
2023-04-15T08:43:59.293Z,10.90
2023-04-15T08:46:26.077Z,11.00
2023-04-15T08:48:52.803Z,11.10
2023-04-15T08:51:19.540Z,11.20
2023-04-15T08:53:46.356Z,11.20
2023-04-15T08:56:13.856Z,11.20
2023-04-15T08:58:40.631Z,11.30
2023-04-15T09:01:07.438Z,11.50
2023-04-15T09:03:34.722Z,11.60
2023-04-15T09:06:01.463Z,11.70
2023-04-15T09:08:35.812Z,11.80
2023-04-15T09:11:05.819Z,11.90
2023-04-15T09:13:32.574Z,11.90
2023-04-15T09:16:01.586Z,11.90
2023-04-15T09:18:36.692Z,11.90
2023-04-15T09:21:13.375Z,11.90
2023-04-15T09:23:41.725Z,11.90
2023-04-15T09:26:08.868Z,11.90
2023-04-15T09:28:41.773Z,11.90
2023-04-15T09:31:08.567Z,11.90
2023-04-15T09:33:35.321Z,11.80
2023-04-15T09:36:04.559Z,11.90
2023-04-15T09:38:31.744Z,11.90
2023-04-15T09:40:58.808Z,12.10
2023-04-15T09:43:40.750Z,12.40
2023-04-15T09:46:07.511Z,12.60
2023-04-15T09:48:34.355Z,12.80
2023-04-15T09:51:01.629Z,12.90
2023-04-15T09:53:31.831Z,13.00
2023-04-15T09:56:01.749Z,13.00
2023-04-15T09:58:30.523Z,13.30
2023-04-15T10:00:58.272Z,13.40
2023-04-15T10:03:26.647Z,13.60
2023-04-15T10:05:54.571Z,13.70
2023-04-15T10:08:22.712Z,13.80
2023-04-15T10:10:49.476Z,13.80
2023-04-15T10:13:20.517Z,13.60
2023-04-15T10:16:00.925Z,13.60
2023-04-15T10:18:28.588Z,13.50
2023-04-15T10:20:55.423Z,13.30
2023-04-15T10:23:23.085Z,13.10
2023-04-15T10:25:53.359Z,13.00
2023-04-15T10:28:20.570Z,12.90
2023-04-15T10:30:47.354Z,12.90
2023-04-15T10:33:14.116Z,12.90
2023-04-15T10:35:40.877Z,13.00
2023-04-15T10:38:35.765Z,13.00
2023-04-15T10:41:21.834Z,13.00
2023-04-15T10:44:15.178Z,12.80
2023-04-15T10:46:45.251Z,12.70
2023-04-15T10:49:12.141Z,12.70
2023-04-15T10:51:40.353Z,12.80
2023-04-15T10:54:14.165Z,12.80
2023-04-15T10:56:44.808Z,12.80
2023-04-15T10:59:11.560Z,12.80
2023-04-15T11:01:52.052Z,12.90
2023-04-15T11:04:57.510Z,13.00
2023-04-15T11:07:42.924Z,13.10
2023-04-15T11:10:18.593Z,13.30
2023-04-15T11:12:45.608Z,13.20
2023-04-15T11:15:38.366Z,13.30
2023-04-15T11:18:24.434Z,14.50
2023-04-15T11:21:04.972Z,15.50
2023-04-15T11:23:42.203Z,16.10
2023-04-15T11:26:09.901Z,16.80
2023-04-15T11:28:38.276Z,17.30
2023-04-15T11:31:10.385Z,17.20
2023-04-15T11:33:37.258Z,16.80
2023-04-15T11:36:04.305Z,16.70
2023-04-15T11:38:31.151Z,17.60
2023-04-15T11:40:58.072Z,18.80
2023-04-15T11:43:24.858Z,19.30
2023-04-15T11:46:02.014Z,19.30
2023-04-15T11:48:30.688Z,19.20
2023-04-15T11:51:01.645Z,18.90
2023-04-15T11:53:41.938Z,19.10
2023-04-15T11:56:24.726Z,20.30
2023-04-15T11:58:57.643Z,21.50
2023-04-15T12:01:37.666Z,23.00
2023-04-15T12:04:12.106Z,24.10
2023-04-15T12:06:39.149Z,23.70
2023-04-15T12:09:12.108Z,23.20
2023-04-15T12:11:49.051Z,22.20
2023-04-15T12:14:25.592Z,21.30
2023-04-15T12:17:00.143Z,20.30
2023-04-15T12:19:34.204Z,19.60
2023-04-15T12:22:09.855Z,19.80
2023-04-15T12:24:37.230Z,21.50
2023-04-15T12:27:08.027Z,23.00
2023-04-15T12:29:35.722Z,23.70
2023-04-15T12:32:11.967Z,24.30
2023-04-15T12:34:39.322Z,24.80
2023-04-15T12:37:07.096Z,24.20
2023-04-15T12:39:38.211Z,23.40
2023-04-15T12:42:05.557Z,23.20
2023-04-15T12:44:32.538Z,23.90
2023-04-15T12:46:59.493Z,24.80
2023-04-15T12:49:26.659Z,25.20
2023-04-15T12:51:54.900Z,25.30
2023-04-15T12:54:21.707Z,25.00
2023-04-15T12:56:49.185Z,24.60
2023-04-15T12:59:16.135Z,23.50
2023-04-15T13:01:42.879Z,22.50
2023-04-15T13:04:10.216Z,22.40
2023-04-15T13:06:37.222Z,23.00
2023-04-15T13:09:05.845Z,24.00
2023-04-15T13:11:32.871Z,24.00
2023-04-15T13:14:07.007Z,23.20
2023-04-15T13:16:44.071Z,22.30
2023-04-15T13:19:11.026Z,21.30
2023-04-15T13:21:40.943Z,20.50
2023-04-15T13:24:08.063Z,19.80
2023-04-15T13:26:38.114Z,19.30
2023-04-15T13:29:10.339Z,19.10
2023-04-15T13:31:37.081Z,20.20
2023-04-15T13:34:04.177Z,21.90
2023-04-15T13:36:31.237Z,23.50
2023-04-15T13:38:57.961Z,25.00
2023-04-15T13:41:24.846Z,26.20
2023-04-15T13:43:51.565Z,26.20
2023-04-15T13:46:18.314Z,25.40
2023-04-15T13:48:45.127Z,24.60
2023-04-15T13:51:11.942Z,23.70
2023-04-15T13:53:41.211Z,23.00
2023-04-15T13:56:08.295Z,23.50
2023-04-15T13:58:35.825Z,23.90
2023-04-15T14:01:05.519Z,24.90
2023-04-15T14:03:33.508Z,26.00
2023-04-15T14:06:00.459Z,27.10
2023-04-15T14:08:27.201Z,28.20
2023-04-15T14:10:53.990Z,28.50
2023-04-15T14:13:20.815Z,27.50
2023-04-15T14:15:47.523Z,26.30
2023-04-15T14:18:14.254Z,25.80
2023-04-15T14:20:40.989Z,26.40
2023-04-15T14:23:07.859Z,27.40
2023-04-15T14:25:34.616Z,28.40
2023-04-15T14:28:02.304Z,29.30
2023-04-15T14:30:29.089Z,30.00
2023-04-15T14:32:56.008Z,30.70
2023-04-15T14:35:22.807Z,31.30
2023-04-15T14:37:49.526Z,31.90
2023-04-15T14:40:16.361Z,32.00
2023-04-15T14:42:43.125Z,31.50
2023-04-15T14:45:10.506Z,30.40
2023-04-15T14:47:37.338Z,29.00
2023-04-15T14:50:04.365Z,27.50
2023-04-15T14:52:31.650Z,26.20
2023-04-15T14:54:58.621Z,24.90
2023-04-15T14:57:25.309Z,23.90
2023-04-15T14:59:52.024Z,23.00
2023-04-15T15:02:37.427Z,22.40
2023-04-15T15:05:06.082Z,21.70
2023-04-15T15:07:32.877Z,21.10
2023-04-15T15:10:04.591Z,20.60
2023-04-15T15:12:32.052Z,20.20
2023-04-15T15:14:58.783Z,19.80
2023-04-15T15:17:30.614Z,19.50
2023-04-15T15:19:57.429Z,19.30
2023-04-15T15:22:24.158Z,19.00
2023-04-15T15:24:50.869Z,18.80
2023-04-15T15:27:17.842Z,18.60
2023-04-15T15:29:44.646Z,18.60
2023-04-15T15:32:11.423Z,18.50
2023-04-15T15:34:38.275Z,18.30
2023-04-15T15:37:05.111Z,18.10
2023-04-15T15:39:31.823Z,18.00
2023-04-15T15:41:58.569Z,18.00
2023-04-15T15:44:25.276Z,18.20
2023-04-15T15:46:52.111Z,18.60
2023-04-15T15:49:18.921Z,19.10
2023-04-15T15:51:45.694Z,19.60
2023-04-15T15:54:12.652Z,19.60
2023-04-15T15:56:39.634Z,19.40
2023-04-15T15:59:06.615Z,19.00
2023-04-15T16:01:33.541Z,18.60
2023-04-15T16:04:00.611Z,18.50
2023-04-15T16:06:27.614Z,18.60
2023-04-15T16:08:54.452Z,18.60
2023-04-15T16:11:21.176Z,18.80
2023-04-15T16:13:47.956Z,19.30
2023-04-15T16:16:14.766Z,19.70
2023-04-15T16:18:41.488Z,19.70
2023-04-15T16:21:08.420Z,19.60
2023-04-15T16:23:35.590Z,19.40
2023-04-15T16:26:02.400Z,19.50
2023-04-15T16:28:29.151Z,20.00
2023-04-15T16:30:55.884Z,20.60
2023-04-15T16:33:22.663Z,21.10
2023-04-15T16:35:49.420Z,21.20
2023-04-15T16:38:16.185Z,20.90
2023-04-15T16:40:42.949Z,20.20
2023-04-15T16:43:09.654Z,19.50
2023-04-15T16:45:36.439Z,18.90
2023-04-15T16:48:03.260Z,18.50
2023-04-15T16:50:30.054Z,18.10
2023-04-15T16:52:59.538Z,17.70
2023-04-15T16:55:26.730Z,17.40
2023-04-15T16:58:03.283Z,17.30
2023-04-15T17:00:34.186Z,17.20
2023-04-15T17:03:01.270Z,17.20
2023-04-15T17:05:31.287Z,17.10
2023-04-15T17:07:58.377Z,17.00
2023-04-15T17:10:25.243Z,16.90
2023-04-15T17:12:52.638Z,16.90
2023-04-15T17:15:19.895Z,16.80
2023-04-15T17:17:47.803Z,16.80
2023-04-15T17:20:14.661Z,16.70
2023-04-15T17:22:41.451Z,16.60
2023-04-15T17:25:08.569Z,16.50
2023-04-15T17:27:35.551Z,16.40
2023-04-15T17:30:02.336Z,16.30
2023-04-15T17:32:29.059Z,16.20
2023-04-15T17:34:55.778Z,16.00
2023-04-15T17:37:22.514Z,15.90
2023-04-15T17:39:49.262Z,15.90
2023-04-15T17:42:15.961Z,15.80
2023-04-15T17:44:42.677Z,15.70
2023-04-15T17:47:09.483Z,15.60
2023-04-15T17:49:36.215Z,15.60
2023-04-15T17:52:03.194Z,15.50
2023-04-15T17:54:29.965Z,15.50
2023-04-15T17:56:56.835Z,15.40
2023-04-15T17:59:23.703Z,15.30
2023-04-15T18:01:50.574Z,15.30
2023-04-15T18:04:17.563Z,15.30
2023-04-15T18:06:44.358Z,15.20
2023-04-15T18:09:11.089Z,15.10
2023-04-15T18:11:37.819Z,15.10
2023-04-15T18:14:04.673Z,15.10
2023-04-15T18:16:31.668Z,15.00
2023-04-15T18:18:58.371Z,15.00
2023-04-15T18:21:25.087Z,15.00
2023-04-15T18:23:51.779Z,15.00
2023-04-15T18:26:18.489Z,14.90
2023-04-15T18:28:45.189Z,14.90
2023-04-15T18:31:11.869Z,14.80
2023-04-15T18:33:39.154Z,14.80
2023-04-15T18:36:06.004Z,14.80
2023-04-15T18:38:32.763Z,14.80
2023-04-15T18:40:59.481Z,14.70
2023-04-15T18:43:26.218Z,14.70
2023-04-15T18:45:53.003Z,14.60
2023-04-15T18:48:19.779Z,14.50
2023-04-15T18:50:46.453Z,14.50
2023-04-15T18:53:13.242Z,14.40
2023-04-15T18:55:40.181Z,14.40
2023-04-15T18:58:09.195Z,14.30
2023-04-15T19:00:36.694Z,14.20
2023-04-15T19:03:03.951Z,14.10
2023-04-15T19:05:30.687Z,14.00
2023-04-15T19:07:59.176Z,14.00
2023-04-15T19:10:26.443Z,13.90
2023-04-15T19:12:53.166Z,13.80
2023-04-15T19:15:19.963Z,13.80
2023-04-15T19:17:46.747Z,13.80
2023-04-15T19:20:13.491Z,13.70
2023-04-15T19:22:40.248Z,13.70
2023-04-15T19:25:07.128Z,13.70
2023-04-15T19:27:33.840Z,13.70
2023-04-15T19:30:00.525Z,13.70
2023-04-15T19:32:27.223Z,13.70
2023-04-15T19:34:53.958Z,13.60
2023-04-15T19:37:20.691Z,13.60
2023-04-15T19:39:47.371Z,13.60
2023-04-15T19:42:14.152Z,13.60
2023-04-15T19:44:40.823Z,13.60
2023-04-15T19:47:07.493Z,13.60
2023-04-15T19:49:34.170Z,13.60
2023-04-15T19:52:00.958Z,13.60
2023-04-15T19:54:27.731Z,13.50
2023-04-15T19:56:54.428Z,13.40
2023-04-15T19:59:21.111Z,13.40
2023-04-15T20:01:47.938Z,13.30
2023-04-15T20:04:14.984Z,13.20
2023-04-15T20:06:41.766Z,13.20
2023-04-15T20:09:10.939Z,13.10
2023-04-15T20:12:44.976Z,13.00
2023-04-15T20:14:24.708Z,13.00
2023-04-15T20:16:51.398Z,12.90
2023-04-15T20:19:18.075Z,12.90
2023-04-15T20:21:44.839Z,12.80
2023-04-15T20:24:11.523Z,12.80
2023-04-15T20:26:38.250Z,12.70
2023-04-15T20:29:05.127Z,12.70
2023-04-15T20:31:32.215Z,12.60
2023-04-15T20:33:58.970Z,12.60
2023-04-15T20:36:25.683Z,12.60
2023-04-15T20:38:52.377Z,12.50
2023-04-15T20:41:19.135Z,12.60
2023-04-15T20:43:45.859Z,12.50
2023-04-15T20:46:20.432Z,12.50
2023-04-15T20:48:48.148Z,12.50
2023-04-15T20:51:14.859Z,12.50
2023-04-15T20:53:41.562Z,12.50
2023-04-15T20:56:08.280Z,12.60
2023-04-15T20:58:34.946Z,12.60
2023-04-15T21:01:01.708Z,12.60
2023-04-15T21:03:28.567Z,12.70
2023-04-15T21:05:55.492Z,12.70
2023-04-15T21:08:22.208Z,12.70
2023-04-15T21:10:48.988Z,12.60
2023-04-15T21:13:15.719Z,12.60
2023-04-15T21:15:42.432Z,12.60
2023-04-15T21:18:09.157Z,12.60
2023-04-15T21:20:35.932Z,12.60
2023-04-15T21:23:02.958Z,12.60
2023-04-15T21:25:29.749Z,12.50
2023-04-15T21:27:56.454Z,12.50
2023-04-15T21:30:23.215Z,12.40
2023-04-15T21:32:49.929Z,12.40
2023-04-15T21:35:16.717Z,12.40
2023-04-15T21:37:43.405Z,12.40
2023-04-15T21:40:10.296Z,12.40
2023-04-15T21:42:36.991Z,12.30
2023-04-15T21:45:03.901Z,12.40
2023-04-15T21:47:30.692Z,12.30
2023-04-15T21:49:57.429Z,12.20
2023-04-15T21:52:24.150Z,12.10
2023-04-15T21:54:50.887Z,12.10
2023-04-15T21:57:17.592Z,12.00
2023-04-15T21:59:44.361Z,12.00
2023-04-15T22:02:11.178Z,11.90
2023-04-15T22:04:37.971Z,11.80
2023-04-15T22:07:04.652Z,11.70
2023-04-15T22:09:31.352Z,11.70
2023-04-15T22:11:58.379Z,11.60
2023-04-15T22:14:25.951Z,11.50
2023-04-15T22:16:52.667Z,11.60
2023-04-15T22:19:19.382Z,11.50
2023-04-15T22:21:46.275Z,11.40
2023-04-15T22:24:38.095Z,11.40
2023-04-15T22:26:59.734Z,11.30
2023-04-15T22:29:26.434Z,11.30
2023-04-15T22:31:53.193Z,11.20
2023-04-15T22:34:20.175Z,11.10
2023-04-15T22:36:47.871Z,11.10
2023-04-15T22:39:15.031Z,11.10
2023-04-15T22:41:41.849Z,11.10
2023-04-15T22:44:08.559Z,11.10
2023-04-15T22:46:35.348Z,11.00
2023-04-15T22:49:02.157Z,11.00
2023-04-15T22:51:28.861Z,11.00
2023-04-15T22:53:55.847Z,10.90
2023-04-15T22:56:22.787Z,10.90
2023-04-15T22:58:49.627Z,10.90
2023-04-15T23:01:16.726Z,10.90
2023-04-15T23:03:57.001Z,10.80
2023-04-15T23:06:31.617Z,10.80
2023-04-15T23:08:58.366Z,10.80
2023-04-15T23:11:25.092Z,10.80
2023-04-15T23:13:51.770Z,10.80
2023-04-15T23:16:18.543Z,10.70
2023-04-15T23:18:45.387Z,10.70
2023-04-15T23:21:12.076Z,10.70
2023-04-15T23:23:38.782Z,10.60
2023-04-15T23:26:05.549Z,10.60
2023-04-15T23:28:32.281Z,10.60
2023-04-15T23:31:00.446Z,10.50
2023-04-15T23:33:27.432Z,10.50
2023-04-15T23:35:54.173Z,10.50
2023-04-15T23:38:20.872Z,10.50
2023-04-15T23:40:47.524Z,10.40
2023-04-15T23:43:14.173Z,10.40
2023-04-15T23:45:40.848Z,10.30
2023-04-15T23:48:07.580Z,10.30
2023-04-15T23:50:34.346Z,10.20
2023-04-15T23:53:01.108Z,10.20
2023-04-15T23:55:27.837Z,10.20
2023-04-15T23:57:54.522Z,10.10
